Time;durP1;ratioP1;P1;durP2;ratioP2;P2;SDS_P1;SDS_P2;PMS_P1;PMS_P2;Temp;Humidity;BMP_temperature;BMP_pressure;BME280_temperature;BME280_humidity;BME280_pressure;Samples;Min_cycle;Max_cycle;Signal;HPM_P1;HPM_P2
2022/12/07 00:01:31;;;;;;;0.00;0.00;;;;;;;;;;4977504;28;20262;-80
2022/12/07 00:04:04;;;;;;;0.00;0.00;;;;;;;;;;4977256;28;20723;-79
2022/12/07 00:06:34;;;;;;;0.00;0.00;;;;;;;;;;4975876;28;20215;-79
2022/12/07 00:09:04;;;;;;;0.00;0.00;;;;;;;;;;4977242;28;20239;-79
2022/12/07 00:11:33;;;;;;;0.00;0.00;;;;;;;;;;4963335;28;20242;-80
2022/12/07 00:14:03;;;;;;;0.00;0.00;;;;;;;;;;4958292;28;20262;-79
2022/12/07 00:16:32;;;;;;;0.00;0.00;;;;;;;;;;4970774;28;20237;-78
2022/12/07 00:19:01;;;;;;;0.00;0.00;;;;;;;;;;4975643;28;20207;-80
2022/12/07 00:21:31;;;;;;;0.00;0.00;;;;;;;;;;4976846;28;20215;-80
2022/12/07 00:23:59;;;;;;;0.00;0.00;;;;;;;;;;4967268;28;20662;-80
2022/12/07 00:26:31;;;;;;;0.00;0.00;;;;;;;;;;4976858;28;20617;-79
2022/12/07 00:29:00;;;;;;;0.00;0.00;;;;;;;;;;4977067;28;20242;-79
2022/12/07 00:31:29;;;;;;;0.00;0.00;;;;;;;;;;4977469;28;20235;-79
2022/12/07 00:33:59;;;;;;;0.00;0.00;;;;;;;;;;4968261;28;20235;-80
2022/12/07 00:36:28;;;;;;;0.00;0.00;;;;;;;;;;4976766;28;20672;-80
2022/12/07 00:38:57;;;;;;;0.00;0.00;;;;;;;;;;4976630;28;20212;-79
2022/12/07 00:41:26;;;;;;;0.00;0.00;;;;;;;;;;4957972;29;20237;-80
2022/12/07 00:43:56;;;;;;;0.00;0.00;;;;;;;;;;4970093;28;20260;-79
2022/12/07 00:46:26;;;;;;;0.00;0.00;;;;;;;;;;4976853;28;20210;-80
2022/12/07 00:48:55;;;;;;;0.00;0.00;;;;;;;;;;4976977;28;20687;-80
2022/12/07 00:51:24;;;;;;;0.00;0.00;;;;;;;;;;4977194;28;20209;-80
2022/12/07 00:53:53;;;;;;;0.00;0.00;;;;;;;;;;4976560;28;20626;-80
2022/12/07 00:56:23;;;;;;;0.00;0.00;;;;;;;;;;4968691;28;20298;-79
2022/12/07 00:58:53;;;;;;;0.00;0.00;;;;;;;;;;4975282;28;20214;-79
2022/12/07 01:01:24;;;;;;;0.00;0.00;;;;;;;;;;4977170;28;20673;-79
2022/12/07 01:03:52;;;;;;;0.00;0.00;;;;;;;;;;4975832;28;20261;-80
2022/12/07 01:06:22;;;;;;;0.00;0.00;;;;;;;;;;4975940;28;20242;-79
2022/12/07 01:08:50;;;;;;;0.00;0.00;;;;;;;;;;4976360;28;20209;-79
2022/12/07 01:11:20;;;;;;;0.00;0.00;;;;;;;;;;4974157;28;20202;-79
2022/12/07 01:13:48;;;;;;;0.00;0.00;;;;;;;;;;4976758;28;20214;-77
2022/12/07 01:16:17;;;;;;;0.00;0.00;;;;;;;;;;4976216;28;20240;-76
2022/12/07 01:18:49;;;;;;;0.00;0.00;;;;;;;;;;4975003;28;20209;-77
2022/12/07 01:21:18;;;;;;;0.00;0.00;;;;;;;;;;4974682;28;20293;-77
2022/12/07 01:23:47;;;;;;;0.00;0.00;;;;;;;;;;4971627;28;20704;-77
2022/12/07 01:26:16;;;;;;;0.00;0.00;;;;;;;;;;4959221;28;20240;-76
2022/12/07 01:28:45;;;;;;;0.00;0.00;;;;;;;;;;4974669;28;20276;-77
2022/12/07 01:31:15;;;;;;;0.00;0.00;;;;;;;;;;4975807;28;20202;-77
2022/12/07 01:33:44;;;;;;;0.00;0.00;;;;;;;;;;4960154;28;20304;-77
2022/12/07 01:36:16;;;;;;;0.00;0.00;;;;;;;;;;4975726;28;20233;-76
2022/12/07 01:38:46;;;;;;;0.00;0.00;;;;;;;;;;4973762;28;20268;-77
2022/12/07 01:41:14;;;;;;;0.00;0.00;;;;;;;;;;4969835;28;20260;-77
2022/12/07 01:43:58;;;;;;;0.00;0.00;;;;;;;;;;4974081;28;20635;-77
2022/12/07 01:46:26;;;;;;;0.00;0.00;;;;;;;;;;4974328;28;20551;-77
2022/12/07 01:48:55;;;;;;;0.00;0.00;;;;;;;;;;4974358;28;20237;-76
2022/12/07 01:51:25;;;;;;;0.00;0.00;;;;;;;;;;4976069;28;20635;-77
2022/12/07 01:53:53;;;;;;;0.00;0.00;;;;;;;;;;4974649;28;20237;-77
2022/12/07 01:56:26;;;;;;;0.00;0.00;;;;;;;;;;4972550;28;20272;-77
2022/12/07 01:58:56;;;;;;;0.00;0.00;;;;;;;;;;4974516;28;20205;-77
2022/12/07 02:01:25;;;;;;;0.00;0.00;;;;;;;;;;4974441;28;20249;-76
2022/12/07 02:03:54;;;;;;;0.00;0.00;;;;;;;;;;4969904;28;20241;-77
2022/12/07 02:06:24;;;;;;;0.00;0.00;;;;;;;;;;4975189;28;20713;-77
2022/12/07 02:08:54;;;;;;;0.00;0.00;;;;;;;;;;4975124;28;20662;-77
2022/12/07 02:11:22;;;;;;;0.00;0.00;;;;;;;;;;4964655;28;20217;-77
2022/12/07 02:13:51;;;;;;;0.00;0.00;;;;;;;;;;4986492;28;20245;-77
2022/12/07 02:16:25;;;;;;;0.00;0.00;;;;;;;;;;4974792;28;20271;-77
2022/12/07 02:19:01;;;;;;;0.00;0.00;;;;;;;;;;4974964;28;20212;-77
2022/12/07 02:21:34;;;;;;;0.00;0.00;;;;;;;;;;4973269;28;20233;-77
2022/12/07 02:24:23;;;;;;;0.00;0.00;;;;;;;;;;4974414;28;20239;-77
2022/12/07 02:27:03;;;;;;;0.00;0.00;;;;;;;;;;4969861;28;20205;-77
2022/12/07 02:29:35;;;;;;;0.00;0.00;;;;;;;;;;4959501;28;20677;-77
2022/12/07 02:32:21;;;;;;;0.00;0.00;;;;;;;;;;4983480;23;20745;-77
2022/12/07 02:34:51;;;;;;;0.00;0.00;;;;;;;;;;4963377;28;20260;-80
2022/12/07 02:37:23;;;;;;;0.00;0.00;;;;;;;;;;4955294;29;20230;-79
2022/12/07 02:39:53;;;;;;;0.00;0.00;;;;;;;;;;4954301;29;20281;-80
2022/12/07 02:42:30;;;;;;;0.00;0.00;;;;;;;;;;4953174;28;20203;-79
2022/12/07 02:45:01;;;;;;;0.00;0.00;;;;;;;;;;4953941;29;20298;-79
2022/12/07 02:47:30;;;;;;;0.00;0.00;;;;;;;;;;4958488;29;20264;-79
2022/12/07 02:49:58;;;;;;;0.00;0.00;;;;;;;;;;4958318;29;20645;-79
2022/12/07 02:52:28;;;;;;;0.00;0.00;;;;;;;;;;4958652;29;20209;-80
2022/12/07 02:54:56;;;;;;;0.00;0.00;;;;;;;;;;4958034;28;20304;-79
2022/12/07 02:57:31;;;;;;;0.00;0.00;;;;;;;;;;4958711;28;20236;-79
2022/12/07 03:00:06;;;;;;;0.00;0.00;;;;;;;;;;4955795;29;20236;-80
2022/12/07 03:02:43;;;;;;;0.00;0.00;;;;;;;;;;4958639;29;20202;-79
2022/12/07 03:05:17;;;;;;;0.00;0.00;;;;;;;;;;4957083;28;20230;-79
2022/12/07 03:07:51;;;;;;;0.07;0.07;;;;;;;;;;4953401;29;20238;-79
2022/12/07 03:10:24;;;;;;;0.00;0.00;;;;;;;;;;4957348;28;20206;-80
2022/12/07 03:12:59;;;;;;;0.00;0.00;;;;;;;;;;4950899;29;20632;-80
2022/12/07 03:15:31;;;;;;;0.00;0.00;;;;;;;;;;4955230;29;20413;-80
2022/12/07 03:18:01;;;;;;;0.00;0.00;;;;;;;;;;4957303;29;20200;-79
2022/12/07 03:20:31;;;;;;;0.00;0.00;;;;;;;;;;4957713;28;20208;-79
2022/12/07 03:23:00;;;;;;;0.00;0.00;;;;;;;;;;4958288;29;20722;-79
2022/12/07 03:25:29;;;;;;;0.00;0.00;;;;;;;;;;4954570;28;20311;-79
2022/12/07 03:27:59;;;;;;;0.00;0.00;;;;;;;;;;4955931;29;20215;-79
2022/12/07 03:30:31;;;;;;;0.00;0.00;;;;;;;;;;4958244;29;20291;-79
2022/12/07 03:33:02;;;;;;;0.00;0.00;;;;;;;;;;4955649;29;20251;-79
2022/12/07 03:35:33;;;;;;;0.00;0.00;;;;;;;;;;4957992;28;20270;-79
2022/12/07 03:38:04;;;;;;;0.00;0.00;;;;;;;;;;4941835;28;20203;-79
2022/12/07 03:40:36;;;;;;;0.00;0.00;;;;;;;;;;4956747;29;20252;-79
2022/12/07 03:43:05;;;;;;;0.00;0.00;;;;;;;;;;4958420;29;20653;-79
2022/12/07 03:45:39;;;;;;;0.00;0.00;;;;;;;;;;4957419;28;20266;-79
2022/12/07 03:48:09;;;;;;;0.00;0.00;;;;;;;;;;4956093;29;20256;-79
2022/12/07 03:50:37;;;;;;;0.00;0.00;;;;;;;;;;4967843;23;20268;31
2022/12/07 03:53:16;;;;;;;0.00;0.00;;;;;;;;;;4956076;28;20223;-77
2022/12/07 03:55:45;;;;;;;0.00;0.00;;;;;;;;;;4946457;29;20265;-78
2022/12/07 03:58:15;;;;;;;0.00;0.00;;;;;;;;;;4947433;28;20297;-78
2022/12/07 04:00:45;;;;;;;0.00;0.00;;;;;;;;;;4951543;29;20296;-78
2022/12/07 04:03:13;;;;;;;0.00;0.00;;;;;;;;;;4938955;28;20207;-78
2022/12/07 04:05:42;;;;;;;0.00;0.00;;;;;;;;;;4947161;29;20226;-78
2022/12/07 04:08:11;;;;;;;0.00;0.00;;;;;;;;;;4938567;28;20300;-78
2022/12/07 04:10:40;;;;;;;0.00;0.00;;;;;;;;;;4949708;29;20211;-78
2022/12/07 04:13:08;;;;;;;0.00;0.00;;;;;;;;;;4940221;28;20240;-78
2022/12/07 04:15:36;;;;;;;0.00;0.00;;;;;;;;;;4944603;29;20748;-78
2022/12/07 04:18:06;;;;;;;0.00;0.00;;;;;;;;;;4938441;29;20210;-78
2022/12/07 04:20:35;;;;;;;0.00;0.00;;;;;;;;;;4937032;29;20307;-78
2022/12/07 04:23:03;;;;;;;0.00;0.00;;;;;;;;;;4938081;29;20321;-78
2022/12/07 04:25:32;;;;;;;0.00;0.00;;;;;;;;;;4949725;29;20274;-78
2022/12/07 04:28:00;;;;;;;0.00;0.00;;;;;;;;;;4938267;29;20205;-78
2022/12/07 04:30:29;;;;;;;0.00;0.00;;;;;;;;;;4944932;28;20217;-78
2022/12/07 04:32:57;;;;;;;0.00;0.00;;;;;;;;;;4943281;29;20252;-78
2022/12/07 04:35:27;;;;;;;0.00;0.00;;;;;;;;;;4944332;28;20236;-78
2022/12/07 04:37:56;;;;;;;0.00;0.00;;;;;;;;;;4937064;29;20745;-78
2022/12/07 04:40:24;;;;;;;0.00;0.00;;;;;;;;;;4945711;28;20292;-78
2022/12/07 04:42:53;;;;;;;0.00;0.00;;;;;;;;;;4948083;29;20244;-78
2022/12/07 04:45:21;;;;;;;0.00;0.00;;;;;;;;;;4944687;28;20701;-78
2022/12/07 04:47:50;;;;;;;0.00;0.00;;;;;;;;;;4936869;29;20258;-78
2022/12/07 04:50:18;;;;;;;0.00;0.00;;;;;;;;;;4941629;28;20245;-78
2022/12/07 04:52:48;;;;;;;0.00;0.00;;;;;;;;;;4937763;29;20706;-77
2022/12/07 04:55:17;;;;;;;0.00;0.00;;;;;;;;;;4943182;28;20675;-78
2022/12/07 04:57:45;;;;;;;0.00;0.00;;;;;;;;;;4938134;29;20320;-78
2022/12/07 05:00:14;;;;;;;0.00;0.00;;;;;;;;;;4949031;29;20620;-78
2022/12/07 05:02:42;;;;;;;0.00;0.00;;;;;;;;;;4949040;29;20216;-77
2022/12/07 05:05:11;;;;;;;0.00;0.00;;;;;;;;;;4947429;28;20226;-78
2022/12/07 05:07:39;;;;;;;0.00;0.00;;;;;;;;;;4937733;29;20271;-78
2022/12/07 05:10:10;;;;;;;0.00;0.00;;;;;;;;;;4943916;28;20200;-78
2022/12/07 05:12:39;;;;;;;0.00;0.00;;;;;;;;;;4953852;23;20598;-77
2022/12/07 05:15:08;;;;;;;0.00;0.00;;;;;;;;;;4973563;28;20243;-79
2022/12/07 05:17:36;;;;;;;0.00;0.00;;;;;;;;;;4975194;28;20573;-79
2022/12/07 05:20:05;;;;;;;0.00;0.00;;;;;;;;;;4979953;28;20632;-79
2022/12/07 05:22:34;;;;;;;0.00;0.00;;;;;;;;;;4959663;28;20232;-78
2022/12/07 05:25:02;;;;;;;0.03;0.03;;;;;;;;;;4980395;28;20664;-79
2022/12/07 05:27:32;;;;;;;0.00;0.00;;;;;;;;;;4986100;28;20239;-78
2022/12/07 05:30:01;;;;;;;0.00;0.00;;;;;;;;;;4978011;28;20652;-79
2022/12/07 05:32:33;;;;;;;0.00;0.00;;;;;;;;;;4975158;28;20213;-78
2022/12/07 05:35:02;;;;;;;0.00;0.00;;;;;;;;;;4959874;28;20237;-78
2022/12/07 05:37:34;;;;;;;0.00;0.00;;;;;;;;;;4974423;28;20501;-78
2022/12/07 05:40:02;;;;;;;0.00;0.00;;;;;;;;;;4980470;28;20290;-78
2022/12/07 05:42:33;;;;;;;0.10;0.10;;;;;;;;;;4974910;28;20213;-78
2022/12/07 05:45:01;;;;;;;0.00;0.00;;;;;;;;;;4965089;28;20266;-78
2022/12/07 05:47:30;;;;;;;0.00;0.00;;;;;;;;;;4955924;28;20711;-79
2022/12/07 05:49:58;;;;;;;0.00;0.00;;;;;;;;;;4975461;28;20202;-78
2022/12/07 05:52:27;;;;;;;0.00;0.00;;;;;;;;;;4973966;28;20208;-78
2022/12/07 05:54:56;;;;;;;0.00;0.00;;;;;;;;;;4971478;28;20258;-79
2022/12/07 05:57:24;;;;;;;0.00;0.00;;;;;;;;;;4980461;28;20660;-78
2022/12/07 05:59:53;;;;;;;0.00;0.00;;;;;;;;;;4976940;28;20704;-78
2022/12/07 06:02:21;;;;;;;0.00;0.00;;;;;;;;;;4986417;28;20655;-78
2022/12/07 06:04:50;;;;;;;0.00;0.00;;;;;;;;;;4979918;28;20280;-79
2022/12/07 06:07:19;;;;;;;0.00;0.00;;;;;;;;;;4975614;28;20200;-78
2022/12/07 06:09:48;;;;;;;0.00;0.00;;;;;;;;;;4977677;28;20591;-78
2022/12/07 06:12:34;;;;;;;0.00;0.00;;;;;;;;;;4959660;28;20219;-78
2022/12/07 06:15:04;;;;;;;0.00;0.00;;;;;;;;;;4972241;28;20320;-78
2022/12/07 06:17:32;;;;;;;0.00;0.00;;;;;;;;;;4976520;28;20215;-78
2022/12/07 06:20:01;;;;;;;0.00;0.00;;;;;;;;;;4976214;28;20213;-78
2022/12/07 06:22:30;;;;;;;0.00;0.00;;;;;;;;;;4976626;28;20224;-78
2022/12/07 06:24:58;;;;;;;0.00;0.00;;;;;;;;;;4960400;28;20227;-78
2022/12/07 06:27:33;;;;;;;0.00;0.00;;;;;;;;;;4992524;28;20290;-78
2022/12/07 06:30:06;;;;;;;0.10;0.10;;;;;;;;;;4977923;28;20339;-78
2022/12/07 06:32:36;;;;;;;0.00;0.00;;;;;;;;;;4974889;28;20260;-78
2022/12/07 06:35:04;;;;;;;0.00;0.00;;;;;;;;;;4974807;28;20308;-78
2022/12/07 06:37:33;;;;;;;0.00;0.00;;;;;;;;;;4955973;29;20259;-78
2022/12/07 06:40:01;;;;;;;0.00;0.00;;;;;;;;;;4974218;28;20671;-78
2022/12/07 06:42:30;;;;;;;0.00;0.00;;;;;;;;;;4974995;28;20202;-78
2022/12/07 06:44:58;;;;;;;0.00;0.00;;;;;;;;;;4982392;28;20285;-78
2022/12/07 06:47:27;;;;;;;0.10;0.10;;;;;;;;;;4973036;28;20202;-78
2022/12/07 06:50:17;;;;;;;0.00;0.00;;;;;;;;;;4972628;28;20255;-77
2022/12/07 06:52:46;;;;;;;0.00;0.00;;;;;;;;;;4966374;28;20216;-79
2022/12/07 06:55:15;;;;;;;0.00;0.00;;;;;;;;;;4973919;28;20233;-80
2022/12/07 06:57:43;;;;;;;0.00;0.00;;;;;;;;;;4974347;28;20266;-80
2022/12/07 07:00:12;;;;;;;0.00;0.00;;;;;;;;;;4981782;28;20252;-80
2022/12/07 07:02:49;;;;;;;0.00;0.00;;;;;;;;;;4965755;28;20247;-79
2022/12/07 07:05:21;;;;;;;0.00;0.00;;;;;;;;;;4974371;28;20275;-79
2022/12/07 07:07:49;;;;;;;0.03;0.03;;;;;;;;;;4973824;28;20214;-80
2022/12/07 07:10:38;;;;;;;0.00;0.00;;;;;;;;;;4974195;28;20205;-80
2022/12/07 07:13:07;;;;;;;0.00;0.00;;;;;;;;;;4973976;28;20656;-79
2022/12/07 07:15:36;;;;;;;0.10;0.10;;;;;;;;;;4971561;28;20693;-79
2022/12/07 07:18:07;;;;;;;0.00;0.00;;;;;;;;;;4965211;28;20224;-80
2022/12/07 07:20:37;;;;;;;0.00;0.00;;;;;;;;;;4957665;28;20246;-79
2022/12/07 07:23:06;;;;;;;0.00;0.00;;;;;;;;;;4971634;28;20212;-79
2022/12/07 07:25:38;;;;;;;0.00;0.00;;;;;;;;;;4963122;28;20228;-78
2022/12/07 07:28:07;;;;;;;0.00;0.00;;;;;;;;;;4978797;28;20207;-81
2022/12/07 07:30:35;;;;;;;0.00;0.00;;;;;;;;;;4987172;28;20214;-80
2022/12/07 07:33:04;;;;;;;0.00;0.00;;;;;;;;;;4981676;28;20242;-77
2022/12/07 07:35:34;;;;;;;0.00;0.00;;;;;;;;;;4971013;28;20227;-79
2022/12/07 07:38:03;;;;;;;0.00;0.00;;;;;;;;;;4977637;28;20276;-79
2022/12/07 07:40:32;;;;;;;0.00;0.00;;;;;;;;;;4985441;28;20289;-78
2022/12/07 07:43:01;;;;;;;0.10;0.10;;;;;;;;;;4977782;28;20206;-78
2022/12/07 07:48:56;;;;;;;0.00;0.00;;;;;;;;;;4983554;28;20256;-79
2022/12/07 07:51:24;;;;;;;0.00;0.00;;;;;;;;;;4972111;28;20205;-78
2022/12/07 07:54:30;;;;;;;0.00;0.00;;;;;;;;;;4960021;29;20742;-79
2022/12/07 07:57:00;;;;;;;0.00;0.00;;;;;;;;;;4972282;28;20207;-80
2022/12/07 07:59:29;;;;;;;0.00;0.00;;;;;;;;;;4977725;28;20736;-80
2022/12/07 08:01:57;;;;;;;0.00;0.00;;;;;;;;;;4977766;28;20246;-79
2022/12/07 08:04:26;;;;;;;0.00;0.00;;;;;;;;;;4987495;28;20312;-78
2022/12/07 08:06:54;;;;;;;0.00;0.00;;;;;;;;;;4980482;28;20211;-78
2022/12/07 08:09:23;;;;;;;0.00;0.00;;;;;;;;;;4975530;28;20239;-78
2022/12/07 08:11:51;;;;;;;0.10;0.10;;;;;;;;;;4977112;28;20300;-78
2022/12/07 08:14:21;;;;;;;0.00;0.00;;;;;;;;;;4984413;28;20233;-78
2022/12/07 08:16:53;;;;;;;0.00;0.00;;;;;;;;;;4980070;28;20274;-78
2022/12/07 08:19:21;;;;;;;0.00;0.00;;;;;;;;;;4977628;28;20241;-78
2022/12/07 08:21:53;;;;;;;0.00;0.00;;;;;;;;;;4977232;28;20205;-78
2022/12/07 08:24:21;;;;;;;0.00;0.00;;;;;;;;;;4975622;28;20236;-78
2022/12/07 08:26:50;;;;;;;0.07;0.07;;;;;;;;;;4983813;28;20299;-78
2022/12/07 08:29:19;;;;;;;0.07;0.07;;;;;;;;;;4978740;28;20210;-78
2022/12/07 08:31:49;;;;;;;0.00;0.00;;;;;;;;;;4968112;28;20208;-78
2022/12/07 08:34:17;;;;;;;0.00;0.00;;;;;;;;;;4982566;28;20225;-78
2022/12/07 08:36:46;;;;;;;0.00;0.00;;;;;;;;;;4987562;28;20207;-78
2022/12/07 08:39:14;;;;;;;0.00;0.00;;;;;;;;;;4992543;28;20269;-78
2022/12/07 08:42:00;;;;;;;0.00;0.00;;;;;;;;;;4991141;28;20212;-78
2022/12/07 08:44:28;;;;;;;0.00;0.00;;;;;;;;;;4983689;28;20232;-79
2022/12/07 08:47:00;;;;;;;0.00;0.00;;;;;;;;;;4976782;28;20234;-78
2022/12/07 08:49:32;;;;;;;0.00;0.00;;;;;;;;;;4982786;28;20708;-78
2022/12/07 08:52:01;;;;;;;0.00;0.00;;;;;;;;;;4976559;28;20209;-78
2022/12/07 08:54:30;;;;;;;0.00;0.00;;;;;;;;;;4985404;28;20644;-78
2022/12/07 08:56:58;;;;;;;0.00;0.00;;;;;;;;;;4987937;28;20236;-78
2022/12/07 08:59:28;;;;;;;0.00;0.00;;;;;;;;;;4975778;28;20228;-78
2022/12/07 09:01:56;;;;;;;0.00;0.00;;;;;;;;;;4957020;29;20256;-78
2022/12/07 09:04:26;;;;;;;0.10;0.10;;;;;;;;;;4966587;28;20253;-79
2022/12/07 09:06:55;;;;;;;0.00;0.00;;;;;;;;;;4973992;28;20204;-78
2022/12/07 09:09:24;;;;;;;0.00;0.00;;;;;;;;;;4956635;28;20235;-78
2022/12/07 09:11:52;;;;;;;0.00;0.00;;;;;;;;;;4969093;28;20241;-79
2022/12/07 09:14:21;;;;;;;0.00;0.00;;;;;;;;;;4979110;28;20266;-79
2022/12/07 09:16:50;;;;;;;0.00;0.00;;;;;;;;;;4968304;28;20244;-77
2022/12/07 09:19:18;;;;;;;0.00;0.00;;;;;;;;;;4969682;28;20295;-77
2022/12/07 09:21:48;;;;;;;0.00;0.00;;;;;;;;;;4972309;28;20239;-77
2022/12/07 09:24:16;;;;;;;0.00;0.00;;;;;;;;;;4979503;28;20763;-77
2022/12/07 09:26:45;;;;;;;0.00;0.00;;;;;;;;;;4994561;28;20301;-77
2022/12/07 09:29:13;;;;;;;0.00;0.00;;;;;;;;;;4976614;28;20705;-77
2022/12/07 09:31:42;;;;;;;0.00;0.00;;;;;;;;;;4974172;28;20296;-77
2022/12/07 09:34:10;;;;;;;0.00;0.00;;;;;;;;;;4964574;28;20237;-77
2022/12/07 09:36:39;;;;;;;0.00;0.00;;;;;;;;;;4979940;28;20204;-77
2022/12/07 09:39:09;;;;;;;0.00;0.00;;;;;;;;;;4981474;28;20280;-77
2022/12/07 09:41:39;;;;;;;0.00;0.00;;;;;;;;;;4976405;28;20259;-77
2022/12/07 09:44:08;;;;;;;0.00;0.00;;;;;;;;;;4968095;28;20222;-77
2022/12/07 09:46:38;;;;;;;0.00;0.00;;;;;;;;;;4976417;28;20209;-77
2022/12/07 09:49:07;;;;;;;0.00;0.00;;;;;;;;;;4975092;28;20260;-77
2022/12/07 09:51:35;;;;;;;0.00;0.00;;;;;;;;;;4973961;28;20240;-77
2022/12/07 09:54:04;;;;;;;0.00;0.00;;;;;;;;;;4977952;28;20257;-77
2022/12/07 09:56:34;;;;;;;0.00;0.00;;;;;;;;;;4982235;28;20220;-77
2022/12/07 09:59:04;;;;;;;0.00;0.00;;;;;;;;;;4967331;28;20312;-77
2022/12/07 10:01:34;;;;;;;0.00;0.00;;;;;;;;;;4977664;28;20721;-77
2022/12/07 10:04:08;;;;;;;0.00;0.00;;;;;;;;;;4979374;28;20605;-77
2022/12/07 10:06:37;;;;;;;0.00;0.00;;;;;;;;;;4967968;28;20329;-77
2022/12/07 10:09:10;;;;;;;0.00;0.00;;;;;;;;;;4975491;28;20563;-77
2022/12/07 10:11:53;;;;;;;0.00;0.00;;;;;;;;;;4974865;28;20186;-77
2022/12/07 10:14:23;;;;;;;0.00;0.00;;;;;;;;;;4974527;28;20238;-77
2022/12/07 10:17:30;;;;;;;0.00;0.00;;;;;;;;;;4978881;28;20287;-77
2022/12/07 10:20:10;;;;;;;0.00;0.00;;;;;;;;;;4969262;28;20228;-77
2022/12/07 10:22:39;;;;;;;0.00;0.00;;;;;;;;;;4973329;28;20268;-77
2022/12/07 10:25:19;;;;;;;0.00;0.00;;;;;;;;;;4980828;28;20368;-77
2022/12/07 10:27:58;;;;;;;0.00;0.00;;;;;;;;;;4979644;28;20240;-77
2022/12/07 10:30:28;;;;;;;0.00;0.00;;;;;;;;;;4974457;28;20563;-77
2022/12/07 10:32:57;;;;;;;0.00;0.00;;;;;;;;;;4963223;28;20252;-78
2022/12/07 10:35:27;;;;;;;0.00;0.00;;;;;;;;;;4963464;28;20218;-77
2022/12/07 10:37:57;;;;;;;0.00;0.00;;;;;;;;;;4975105;28;20190;-80
2022/12/07 10:40:28;;;;;;;0.00;0.00;;;;;;;;;;4975444;28;20217;-80
2022/12/07 10:43:07;;;;;;;0.00;0.00;;;;;;;;;;4975600;28;20642;-80
2022/12/07 10:45:44;;;;;;;0.00;0.00;;;;;;;;;;4974773;28;20260;-80
2022/12/07 10:48:36;;;;;;;0.00;0.00;;;;;;;;;;4975625;28;20277;-80
2022/12/07 10:51:09;;;;;;;0.00;0.00;;;;;;;;;;4974889;28;20292;-80
2022/12/07 10:53:48;;;;;;;0.00;0.00;;;;;;;;;;4976286;28;20643;-81
2022/12/07 10:56:23;;;;;;;0.00;0.00;;;;;;;;;;4976768;28;20214;-80
2022/12/07 10:58:57;;;;;;;0.00;0.00;;;;;;;;;;4975905;28;20264;-80
2022/12/07 11:01:31;;;;;;;0.00;0.00;;;;;;;;;;4975111;28;20185;-80
2022/12/07 11:04:09;;;;;;;0.00;0.00;;;;;;;;;;4977390;28;20233;-80
2022/12/07 11:06:41;;;;;;;0.00;0.00;;;;;;;;;;4979001;28;20185;-80
2022/12/07 11:09:27;;;;;;;0.00;0.00;;;;;;;;;;4970787;28;21020;-80
2022/12/07 11:12:20;;;;;;;0.00;0.00;;;;;;;;;;4976660;28;20236;-80
2022/12/07 11:14:55;;;;;;;0.00;0.00;;;;;;;;;;4991207;28;20236;-80
2022/12/07 11:17:28;;;;;;;0.00;0.00;;;;;;;;;;4998492;28;20185;-80
2022/12/07 11:20:02;;;;;;;0.00;0.00;;;;;;;;;;4997564;28;20682;-80
2022/12/07 11:22:35;;;;;;;0.00;0.00;;;;;;;;;;4997215;28;20201;-80
2022/12/07 11:25:16;;;;;;;0.00;0.00;;;;;;;;;;4997249;28;20221;-80
2022/12/07 11:27:48;;;;;;;0.00;0.00;;;;;;;;;;4997144;28;20198;-80
2022/12/07 11:30:21;;;;;;;0.00;0.00;;;;;;;;;;4997457;28;20228;-79
2022/12/07 11:32:59;;;;;;;0.00;0.00;;;;;;;;;;4997047;28;20240;-80
2022/12/07 11:35:34;;;;;;;0.00;0.00;;;;;;;;;;4997038;28;20260;-80
2022/12/07 11:38:10;;;;;;;0.00;0.00;;;;;;;;;;4996947;28;20188;-80
2022/12/07 11:40:39;;;;;;;0.00;0.00;;;;;;;;;;4996263;28;20244;-80
2022/12/07 11:43:15;;;;;;;0.00;0.00;;;;;;;;;;4996809;28;20236;-79
2022/12/07 11:45:44;;;;;;;0.00;0.00;;;;;;;;;;4996634;28;20632;-80
2022/12/07 11:48:17;;;;;;;0.00;0.00;;;;;;;;;;4997002;28;20209;-80
2022/12/07 11:50:47;;;;;;;0.00;0.00;;;;;;;;;;4996600;28;20259;-80
2022/12/07 11:53:18;;;;;;;0.00;0.00;;;;;;;;;;4997031;28;20221;-80
2022/12/07 11:55:51;;;;;;;0.00;0.00;;;;;;;;;;4988579;28;20678;-80
2022/12/07 11:58:24;;;;;;;0.00;0.00;;;;;;;;;;4996533;28;20635;-80
2022/12/07 12:00:53;;;;;;;0.00;0.00;;;;;;;;;;4996194;28;20201;-80
2022/12/07 12:03:29;;;;;;;0.00;0.00;;;;;;;;;;4996184;28;20670;-80
2022/12/07 12:05:58;;;;;;;0.00;0.00;;;;;;;;;;4997185;28;20197;-80
2022/12/07 12:08:30;;;;;;;0.00;0.00;;;;;;;;;;4996907;28;20245;-80
2022/12/07 12:11:25;;;;;;;0.00;0.00;;;;;;;;;;4995713;28;20209;-80
2022/12/07 12:14:01;;;;;;;0.00;0.00;;;;;;;;;;4993888;28;20315;-80
2022/12/07 12:17:14;;;;;;;0.00;0.00;;;;;;;;;;4996072;28;20348;-80
2022/12/07 12:19:47;;;;;;;0.00;0.00;;;;;;;;;;4996876;28;20193;-80
2022/12/07 12:22:17;;;;;;;0.00;0.00;;;;;;;;;;4996517;28;20658;-80
2022/12/07 12:24:46;;;;;;;0.00;0.00;;;;;;;;;;4994344;28;20284;-79
2022/12/07 12:27:21;;;;;;;0.00;0.00;;;;;;;;;;4976516;28;20245;-80
2022/12/07 12:29:53;;;;;;;0.00;0.00;;;;;;;;;;4977538;28;20248;-80
2022/12/07 12:32:23;;;;;;;0.00;0.00;;;;;;;;;;4977699;28;20241;-80
2022/12/07 12:35:04;;;;;;;0.00;0.00;;;;;;;;;;4977179;28;20304;-80
2022/12/07 12:37:44;;;;;;;0.00;0.00;;;;;;;;;;4976300;28;20186;-80
2022/12/07 12:40:32;;;;;;;0.00;0.00;;;;;;;;;;4976165;28;20221;-80
2022/12/07 12:43:02;;;;;;;0.00;0.00;;;;;;;;;;4976597;28;20218;-80
2022/12/07 12:45:32;;;;;;;0.00;0.00;;;;;;;;;;4976288;28;20761;-79
2022/12/07 12:48:01;;;;;;;0.00;0.00;;;;;;;;;;4975853;28;20217;-80
2022/12/07 12:50:33;;;;;;;0.00;0.00;;;;;;;;;;4975759;28;20210;-80
2022/12/07 12:53:14;;;;;;;0.00;0.00;;;;;;;;;;4975884;28;20682;-80
2022/12/07 12:55:58;;;;;;;0.00;0.00;;;;;;;;;;4975291;28;20232;-80
2022/12/07 12:58:31;;;;;;;0.00;0.00;;;;;;;;;;4975887;28;20627;-79
2022/12/07 13:01:18;;;;;;;0.00;0.00;;;;;;;;;;4975384;28;20216;-80
2022/12/07 13:03:53;;;;;;;0.00;0.00;;;;;;;;;;4968210;28;20209;-80
2022/12/07 13:06:37;;;;;;;0.00;0.00;;;;;;;;;;4975534;28;20229;-80
2022/12/07 13:09:18;;;;;;;0.00;0.00;;;;;;;;;;4975374;28;20189;-80
2022/12/07 13:11:47;;;;;;;0.00;0.00;;;;;;;;;;4974299;28;20285;-80
2022/12/07 13:14:36;;;;;;;0.00;0.00;;;;;;;;;;4974065;28;20773;-81
2022/12/07 13:17:09;;;;;;;0.00;0.00;;;;;;;;;;4975475;28;20224;-80
2022/12/07 13:20:00;;;;;;;0.00;0.00;;;;;;;;;;4975980;28;20658;-80
2022/12/07 13:22:46;;;;;;;0.00;0.00;;;;;;;;;;4975651;28;20182;-79
2022/12/07 13:25:33;;;;;;;0.00;0.00;;;;;;;;;;4971520;28;20357;-80
2022/12/07 13:28:04;;;;;;;0.00;0.00;;;;;;;;;;4974985;28;20186;-79
2022/12/07 13:30:32;;;;;;;0.00;0.00;;;;;;;;;;4974910;28;20218;-79
2022/12/07 13:33:01;;;;;;;0.00;0.00;;;;;;;;;;4975102;28;20277;-79
2022/12/07 13:35:33;;;;;;;0.00;0.00;;;;;;;;;;4974973;28;20222;-80
2022/12/07 13:38:03;;;;;;;0.00;0.00;;;;;;;;;;4975028;28;20192;-79
2022/12/07 13:40:33;;;;;;;0.00;0.00;;;;;;;;;;4974777;28;20210;-79
2022/12/07 13:43:04;;;;;;;0.00;0.00;;;;;;;;;;4975172;28;20251;-79
2022/12/07 13:45:49;;;;;;;0.00;0.00;;;;;;;;;;4974835;28;20593;-80
2022/12/07 13:48:21;;;;;;;0.00;0.00;;;;;;;;;;4974797;28;20241;-79
2022/12/07 13:50:55;;;;;;;0.00;0.00;;;;;;;;;;4974546;28;20236;-81
2022/12/07 13:53:24;;;;;;;0.00;0.00;;;;;;;;;;4974946;28;20529;-80
2022/12/07 13:55:54;;;;;;;0.00;0.00;;;;;;;;;;4974354;28;20265;-79
2022/12/07 13:58:23;;;;;;;0.00;0.00;;;;;;;;;;4974263;28;20245;-80
2022/12/07 14:00:52;;;;;;;0.00;0.00;;;;;;;;;;4974571;28;20237;-80
2022/12/07 14:03:27;;;;;;;0.00;0.00;;;;;;;;;;4974799;28;20210;-80
2022/12/07 14:06:06;;;;;;;0.00;0.00;;;;;;;;;;4974577;28;20271;-79
2022/12/07 14:08:34;;;;;;;0.00;0.00;;;;;;;;;;4974245;28;20244;-80
2022/12/07 14:11:04;;;;;;;0.00;0.00;;;;;;;;;;4973913;28;20288;-79
2022/12/07 14:13:34;;;;;;;0.00;0.00;;;;;;;;;;4973441;28;20213;-79
2022/12/07 14:16:03;;;;;;;0.00;0.00;;;;;;;;;;4959075;28;20246;-79
2022/12/07 14:18:32;;;;;;;0.00;0.00;;;;;;;;;;4954768;29;20210;-79
2022/12/07 14:21:04;;;;;;;0.00;0.00;;;;;;;;;;4954764;29;20292;-79
2022/12/07 14:23:33;;;;;;;0.00;0.00;;;;;;;;;;4954637;29;20206;-79
2022/12/07 14:26:09;;;;;;;0.00;0.00;;;;;;;;;;4955345;29;20241;-79
2022/12/07 14:28:38;;;;;;;0.00;0.00;;;;;;;;;;4955092;29;20237;-79
2022/12/07 14:31:11;;;;;;;0.00;0.00;;;;;;;;;;4955491;29;20238;-79
2022/12/07 14:33:47;;;;;;;0.00;0.00;;;;;;;;;;4954934;29;20583;-79
2022/12/07 14:36:16;;;;;;;0.00;0.00;;;;;;;;;;4955174;29;20233;-79
2022/12/07 14:38:44;;;;;;;0.00;0.00;;;;;;;;;;4955122;29;20625;-78
2022/12/07 14:44:02;;;;;;;0.00;0.00;;;;;;;;;;4954814;29;20226;-78
2022/12/07 14:46:51;;;;;;;0.00;0.00;;;;;;;;;;4954861;29;20194;-79
2022/12/07 14:49:40;;;;;;;0.00;0.00;;;;;;;;;;4955076;29;20680;-79
2022/12/07 14:52:13;;;;;;;0.00;0.00;;;;;;;;;;4954695;29;20300;-78
2022/12/07 14:55:01;;;;;;;0.00;0.00;;;;;;;;;;4954538;29;20233;-78
2022/12/07 14:57:32;;;;;;;0.00;0.00;;;;;;;;;;4954502;29;20293;-78
2022/12/07 15:00:00;;;;;;;0.00;0.00;;;;;;;;;;4954732;29;20297;-78
2022/12/07 15:02:29;;;;;;;0.00;0.00;;;;;;;;;;4954759;29;20261;-78
2022/12/07 15:04:57;;;;;;;0.00;0.00;;;;;;;;;;4962876;28;20259;-78
2022/12/07 15:07:26;;;;;;;0.00;0.00;;;;;;;;;;4974128;28;20209;-78
2022/12/07 15:09:54;;;;;;;0.10;0.10;;;;;;;;;;4973366;28;20659;-77
2022/12/07 15:12:24;;;;;;;0.00;0.00;;;;;;;;;;4984487;28;20244;-78
2022/12/07 15:14:54;;;;;;;0.00;0.00;;;;;;;;;;4992851;28;20221;-78
2022/12/07 15:17:23;;;;;;;0.10;0.10;;;;;;;;;;4993069;28;20640;-78